CheckWX is a tool to help pilots better visualize weather data.  It is not intended as a substitute for an official pre-flight weather briefing.

13:32:47 UTC

KXNA METAR
Northwest Arkansas Regional Airport
Fayetteville/Springdale/Rogers, Arkansas, USA
Current

40 mins ago

KXNA 251253Z 14004KT 10SM OVC012 23/21 A2995 RMK AO2 SLP128 T02280206
Observed
Aug-25 @ 12:53 UTC
Wind
  • 140° at 4 KTS
Visibility
10 SM
Flight Rules
MVFR
Cloud Levels
  • Overcast at 1,200' AGL
Temperature
23°C / 73°F
Dewpoint
21°C / 70°F
Humidity
89%
Altimeter
29.95" Hg
Pressure
1014.22 hPa
Previous

2 hours ago

KXNA 251153Z 12005KT 10SM OVC013 22/20 A2995 RMK AO2 SLP128 70009 T02220200 10222 20211 58003
Observed
Aug-25 @ 11:53 UTC
Wind
  • 120° at 5 KTS
Visibility
10 SM
Flight Rules
MVFR
Cloud Levels
  • Overcast at 1,300' AGL
Temperature
22°C / 72°F
Dewpoint
20°C / 68°F
Humidity
88%
Altimeter
29.95" Hg
Pressure
1014.22 hPa
24 Hour Rain
0.09"
Previous

3 hours ago

KXNA 251053Z 11004KT 10SM OVC010 22/20 A2995 RMK AO2 CIG 008V013 SLP128 T02170200
Observed
Aug-25 @ 10:53 UTC
Wind
  • 110° at 4 KTS
Visibility
10 SM
Flight Rules
MVFR
Cloud Levels
  • Overcast at 1,000' AGL
Temperature
22°C / 72°F
Dewpoint
20°C / 68°F
Humidity
88%
Altimeter
29.95" Hg
Pressure
1014.22 hPa